Time;durP1;ratioP1;P1;durP2;ratioP2;P2;SDS_P1;SDS_P2;PMS_P1;PMS_P2;Temp;Humidity;BMP_temperature;BMP_pressure;BME280_temperature;BME280_humidity;BME280_pressure;Samples;Min_cycle;Max_cycle;Signal;HPM_P1;HPM_P2
2021/06/09 00:00:00;;;;;;;6.20;5.70;;;;;;;;;;5044138;28;20401;-82
2021/06/09 00:02:27;;;;;;;6.13;5.63;;;;;;;;;;5044891;28;20404;-80
2021/06/09 00:04:54;;;;;;;6.30;5.70;;;;;;;;;;5043390;28;20796;-81
2021/06/09 00:07:21;;;;;;;5.65;5.15;;;;;;;;;;5048084;28;20465;-81
2021/06/09 00:09:47;;;;;;;5.65;5.20;;;;;;;;;;5047493;28;20453;-82
2021/06/09 00:12:14;;;;;;;5.65;5.15;;;;;;;;;;5047607;28;20471;-80
2021/06/09 00:14:41;;;;;;;5.97;5.55;;;;;;;;;;5047483;28;20403;-81
2021/06/09 00:17:08;;;;;;;6.10;5.50;;;;;;;;;;5043555;28;20491;-81
2021/06/09 00:19:35;;;;;;;6.03;5.43;;;;;;;;;;5043093;28;20434;-81
2021/06/09 00:22:03;;;;;;;6.75;5.32;;;;;;;;;;5043118;28;20390;-82
2021/06/09 00:24:30;;;;;;;6.50;5.28;;;;;;;;;;5038886;28;20428;-82
2021/06/09 00:26:56;;;;;;;5.93;5.37;;;;;;;;;;5040239;28;20447;-82
2021/06/09 00:29:23;;;;;;;7.03;5.20;;;;;;;;;;5044105;28;20409;-82
2021/06/09 00:31:49;;;;;;;5.90;5.30;;;;;;;;;;5041149;28;20401;-81
2021/06/09 00:34:16;;;;;;;6.93;6.00;;;;;;;;;;5043586;28;20765;-81
2021/06/09 00:36:42;;;;;;;6.57;5.97;;;;;;;;;;5045887;28;20399;-81
2021/06/09 00:39:10;;;;;;;7.32;6.63;;;;;;;;;;5040498;28;20414;-82
2021/06/09 00:41:37;;;;;;;7.65;6.93;;;;;;;;;;5042235;28;20399;-81
2021/06/09 00:44:05;;;;;;;6.70;6.15;;;;;;;;;;5041006;28;20386;-80
2021/06/09 00:46:33;;;;;;;6.25;5.65;;;;;;;;;;5052373;28;20505;-81
2021/06/09 00:48:59;;;;;;;5.75;5.22;;;;;;;;;;5054396;28;20450;-81
2021/06/09 00:51:26;;;;;;;5.90;5.43;;;;;;;;;;5049220;28;20409;-81
2021/06/09 00:53:54;;;;;;;5.70;5.20;;;;;;;;;;5055227;28;20397;-83
2021/06/09 00:56:24;;;;;;;5.72;5.22;;;;;;;;;;5054118;28;20407;-82
2021/06/09 00:58:51;;;;;;;5.18;4.78;;;;;;;;;;5054092;28;20400;-80
2021/06/09 01:01:20;;;;;;;5.20;4.80;;;;;;;;;;5053500;28;20814;-82
2021/06/09 01:03:46;;;;;;;5.22;4.72;;;;;;;;;;5054485;28;20404;-81
2021/06/09 01:06:13;;;;;;;5.47;4.88;;;;;;;;;;5053516;28;20415;-82
2021/06/09 01:08:42;;;;;;;5.47;5.00;;;;;;;;;;5051669;28;20396;-83
2021/06/09 01:11:11;;;;;;;5.72;5.22;;;;;;;;;;5053939;28;20461;-81
2021/06/09 01:13:39;;;;;;;5.50;5.00;;;;;;;;;;5055136;28;20399;-81
2021/06/09 01:16:06;;;;;;;5.27;4.77;;;;;;;;;;5054261;28;20429;-82
2021/06/09 01:18:32;;;;;;;5.93;5.03;;;;;;;;;;5055271;28;20394;-81
2021/06/09 01:21:00;;;;;;;6.07;5.47;;;;;;;;;;5055166;28;20416;-82
2021/06/09 01:23:29;;;;;;;6.00;5.50;;;;;;;;;;5051551;28;20952;-83
2021/06/09 01:25:56;;;;;;;6.13;5.60;;;;;;;;;;5046869;28;20776;-82
2021/06/09 01:28:23;;;;;;;6.33;5.73;;;;;;;;;;5046811;28;20407;-82
2021/06/09 01:30:50;;;;;;;6.55;6.05;;;;;;;;;;5047049;28;20403;-82
2021/06/09 01:33:18;;;;;;;6.30;5.80;;;;;;;;;;5046739;28;20408;-81
2021/06/09 01:35:45;;;;;;;6.60;6.00;;;;;;;;;;5046886;28;20406;-82
2021/06/09 01:38:12;;;;;;;6.70;6.05;;;;;;;;;;5046364;28;20969;-82
2021/06/09 01:40:40;;;;;;;7.35;6.10;;;;;;;;;;5046876;28;20403;-80
2021/06/09 01:43:07;;;;;;;6.03;5.43;;;;;;;;;;5046551;28;20422;-82
2021/06/09 01:45:35;;;;;;;7.57;5.43;;;;;;;;;;5046964;28;20503;-82
2021/06/09 01:48:02;;;;;;;5.82;5.32;;;;;;;;;;5046695;28;20411;-82
2021/06/09 01:50:30;;;;;;;6.28;5.78;;;;;;;;;;5054607;28;20492;-81
2021/06/09 01:52:57;;;;;;;6.13;5.57;;;;;;;;;;5051816;28;20402;-81
2021/06/09 01:55:25;;;;;;;6.50;5.90;;;;;;;;;;5055151;28;20401;-81
2021/06/09 01:57:54;;;;;;;7.05;6.45;;;;;;;;;;5055193;28;20406;-82
2021/06/09 02:00:24;;;;;;;6.72;6.13;;;;;;;;;;5045833;28;20400;-82
2021/06/09 02:02:53;;;;;;;7.40;6.70;;;;;;;;;;5062692;28;20417;-80
2021/06/09 02:05:20;;;;;;;7.13;6.43;;;;;;;;;;5065478;28;20414;-81
2021/06/09 02:07:46;;;;;;;7.05;6.45;;;;;;;;;;5066347;28;20398;-82
2021/06/09 02:10:15;;;;;;;7.00;6.15;;;;;;;;;;5057666;28;20405;-82
2021/06/09 02:12:45;;;;;;;6.78;6.28;;;;;;;;;;5051595;28;20390;-82
2021/06/09 02:15:15;;;;;;;7.18;6.47;;;;;;;;;;5062249;28;20400;-79
2021/06/09 02:17:46;;;;;;;6.60;6.10;;;;;;;;;;5066308;28;20402;-81
2021/06/09 02:20:14;;;;;;;7.15;6.45;;;;;;;;;;5062421;28;20456;-82
2021/06/09 02:22:40;;;;;;;7.03;6.30;;;;;;;;;;5066415;28;20398;-82
2021/06/09 02:25:08;;;;;;;6.53;5.60;;;;;;;;;;5065902;28;20410;-82
2021/06/09 02:27:35;;;;;;;6.38;5.80;;;;;;;;;;5066663;28;20802;-82
2021/06/09 02:30:04;;;;;;;6.78;6.18;;;;;;;;;;5059110;28;20762;-82
2021/06/09 02:32:32;;;;;;;7.45;6.70;;;;;;;;;;5065755;28;20405;-82
2021/06/09 02:34:59;;;;;;;7.25;6.65;;;;;;;;;;5058653;28;20417;-82
2021/06/09 02:37:25;;;;;;;7.07;6.47;;;;;;;;;;5066039;28;20841;-81
2021/06/09 02:39:51;;;;;;;6.80;6.20;;;;;;;;;;5059561;28;20677;-82
2021/06/09 02:42:19;;;;;;;6.97;6.38;;;;;;;;;;5062923;28;20935;-81
2021/06/09 02:44:46;;;;;;;7.60;7.00;;;;;;;;;;5062610;28;20878;-82
2021/06/09 02:47:14;;;;;;;7.83;7.13;;;;;;;;;;5060462;28;20423;-82
2021/06/09 02:49:44;;;;;;;9.32;8.43;;;;;;;;;;5062783;28;21032;-82
2021/06/09 02:52:15;;;;;;;10.45;9.45;;;;;;;;;;5063444;28;20406;-82
2021/06/09 02:54:49;;;;;;;11.73;10.52;;;;;;;;;;5063547;28;20509;-82
2021/06/09 02:57:25;;;;;;;12.77;11.50;;;;;;;;;;5065734;28;20397;-80
2021/06/09 03:00:02;;;;;;;13.25;12.02;;;;;;;;;;5080503;28;20406;-81
2021/06/09 03:02:39;;;;;;;13.73;12.52;;;;;;;;;;5062137;28;20394;-81
2021/06/09 03:05:16;;;;;;;14.05;12.68;;;;;;;;;;5056661;28;20570;-82
2021/06/09 03:07:56;;;;;;;13.93;12.52;;;;;;;;;;5061823;28;20408;-82
2021/06/09 03:10:30;;;;;;;13.87;12.57;;;;;;;;;;5061725;28;20402;-82
2021/06/09 03:13:03;;;;;;;15.00;13.60;;;;;;;;;;5054072;28;20405;-82
2021/06/09 03:15:39;;;;;;;14.85;13.45;;;;;;;;;;5054436;28;20405;-81
2021/06/09 03:18:10;;;;;;;14.90;13.60;;;;;;;;;;5055811;28;20402;-82
2021/06/09 03:20:50;;;;;;;16.00;14.40;;;;;;;;;;5059796;28;20749;-82
2021/06/09 03:23:30;;;;;;;16.70;15.10;;;;;;;;;;5061412;28;20413;-82
2021/06/09 03:26:02;;;;;;;16.60;15.00;;;;;;;;;;5061335;28;20451;-80
2021/06/09 03:28:34;;;;;;;16.98;15.27;;;;;;;;;;5054356;28;20398;-82
2021/06/09 03:31:05;;;;;;;17.30;15.60;;;;;;;;;;5055182;28;20409;-81
2021/06/09 03:33:36;;;;;;;17.23;15.52;;;;;;;;;;5054763;28;20870;-82
2021/06/09 03:36:09;;;;;;;15.85;14.35;;;;;;;;;;5055191;28;20417;-82
2021/06/09 03:38:47;;;;;;;16.25;14.75;;;;;;;;;;5061779;28;20394;-82
2021/06/09 03:41:16;;;;;;;15.25;13.85;;;;;;;;;;5061028;28;20405;-81
2021/06/09 03:43:48;;;;;;;14.77;13.27;;;;;;;;;;5061272;28;20405;-81
2021/06/09 03:46:16;;;;;;;16.67;15.05;;;;;;;;;;5061160;28;20418;-81
2021/06/09 03:48:44;;;;;;;15.07;13.38;;;;;;;;;;5061740;28;20394;-82
2021/06/09 03:51:13;;;;;;;15.65;14.05;;;;;;;;;;5060758;28;20473;-82
2021/06/09 03:53:40;;;;;;;15.35;13.75;;;;;;;;;;5061505;28;20739;-82
2021/06/09 03:56:09;;;;;;;13.53;12.20;;;;;;;;;;5061270;28;20394;-82
2021/06/09 03:58:36;;;;;;;15.00;13.15;;;;;;;;;;5061729;28;20434;-82
2021/06/09 04:01:03;;;;;;;13.20;12.03;;;;;;;;;;5061220;28;20398;-82
2021/06/09 04:03:31;;;;;;;14.88;12.60;;;;;;;;;;5055748;28;20413;-81
2021/06/09 04:06:00;;;;;;;14.38;12.27;;;;;;;;;;5054377;28;20422;-82
2021/06/09 04:08:30;;;;;;;13.40;12.10;;;;;;;;;;5051540;28;20489;-82
2021/06/09 04:10:58;;;;;;;16.67;14.98;;;;;;;;;;5047159;28;20421;-81
2021/06/09 04:13:27;;;;;;;16.05;14.43;;;;;;;;;;5050495;28;20441;-82
2021/06/09 04:15:55;;;;;;;13.35;11.65;;;;;;;;;;5050956;28;20402;-82
2021/06/09 04:18:22;;;;;;;13.17;11.27;;;;;;;;;;5049872;28;20462;-82
2021/06/09 04:20:50;;;;;;;12.40;11.10;;;;;;;;;;5051529;28;20426;-81
2021/06/09 04:23:17;;;;;;;11.75;10.57;;;;;;;;;;5053414;28;20394;-82
2021/06/09 04:25:45;;;;;;;11.88;10.85;;;;;;;;;;5050651;28;20418;-83
2021/06/09 04:28:13;;;;;;;10.80;9.70;;;;;;;;;;5046305;28;20400;-81
2021/06/09 04:30:40;;;;;;;10.80;9.90;;;;;;;;;;5055359;28;20433;-80
2021/06/09 04:33:10;;;;;;;12.20;9.30;;;;;;;;;;5049438;28;21144;-81
2021/06/09 04:35:38;;;;;;;10.38;9.25;;;;;;;;;;5048034;28;20408;-82
2021/06/09 04:38:06;;;;;;;10.02;8.43;;;;;;;;;;5053164;28;20406;-81
2021/06/09 04:40:32;;;;;;;9.70;8.80;;;;;;;;;;5050892;28;20432;-82
2021/06/09 04:43:00;;;;;;;9.48;8.57;;;;;;;;;;5053182;28;20409;-82
2021/06/09 04:45:30;;;;;;;9.47;8.50;;;;;;;;;;5043233;28;20886;-82
2021/06/09 04:47:57;;;;;;;10.70;8.60;;;;;;;;;;5050662;28;20826;-80
2021/06/09 04:50:25;;;;;;;10.13;8.25;;;;;;;;;;5054397;28;20398;-81
2021/06/09 04:52:53;;;;;;;10.65;8.00;;;;;;;;;;5049978;28;20420;-80
2021/06/09 04:55:21;;;;;;;8.65;7.85;;;;;;;;;;5045689;28;20423;-81
2021/06/09 04:57:47;;;;;;;9.95;7.97;;;;;;;;;;5038051;28;20417;-81
2021/06/09 05:00:17;;;;;;;8.32;7.50;;;;;;;;;;5052283;28;20416;-81
2021/06/09 05:02:44;;;;;;;7.77;6.97;;;;;;;;;;5050331;28;20404;-82
2021/06/09 05:05:11;;;;;;;7.82;7.13;;;;;;;;;;5052106;28;20476;-80
2021/06/09 05:07:38;;;;;;;7.28;6.57;;;;;;;;;;5039234;28;20411;-80
2021/06/09 05:10:05;;;;;;;7.15;6.53;;;;;;;;;;5035147;28;20484;-81
2021/06/09 05:12:36;;;;;;;7.50;6.75;;;;;;;;;;5034544;28;20463;-80
2021/06/09 05:15:05;;;;;;;7.18;6.57;;;;;;;;;;5032145;28;20401;-80
2021/06/09 05:17:39;;;;;;;8.55;6.65;;;;;;;;;;5035337;28;20397;-80
2021/06/09 05:20:09;;;;;;;8.85;6.78;;;;;;;;;;5032332;28;20397;-81
2021/06/09 05:22:41;;;;;;;8.98;7.20;;;;;;;;;;5034352;28;20401;-80
2021/06/09 05:25:09;;;;;;;9.55;7.80;;;;;;;;;;5034127;28;20592;-81
2021/06/09 05:27:38;;;;;;;9.55;8.63;;;;;;;;;;5035055;28;20873;-81
2021/06/09 05:30:06;;;;;;;10.05;8.52;;;;;;;;;;5034611;28;20789;-81
2021/06/09 05:32:33;;;;;;;8.82;7.50;;;;;;;;;;5035481;28;20401;-81
2021/06/09 05:35:01;;;;;;;9.63;7.00;;;;;;;;;;5035159;28;20762;-80
2021/06/09 05:37:29;;;;;;;8.33;6.87;;;;;;;;;;5027008;28;20408;-81
2021/06/09 05:39:58;;;;;;;7.35;6.60;;;;;;;;;;5035828;28;20401;-81
2021/06/09 05:42:25;;;;;;;6.75;6.15;;;;;;;;;;5028553;28;20488;-82
2021/06/09 05:44:54;;;;;;;6.72;6.13;;;;;;;;;;5032981;28;20393;-82
2021/06/09 05:47:20;;;;;;;7.60;5.82;;;;;;;;;;5078369;22;20421;-85
2021/06/09 05:49:47;;;;;;;7.22;6.43;;;;;;;;;;5069338;28;20402;-84
2021/06/09 05:52:15;;;;;;;7.70;6.95;;;;;;;;;;5063170;28;20417;-84
2021/06/09 05:54:44;;;;;;;9.03;8.10;;;;;;;;;;5067830;28;20398;-85
2021/06/09 05:57:11;;;;;;;8.65;7.70;;;;;;;;;;5069896;28;20410;-85
2021/06/09 05:59:40;;;;;;;8.93;8.00;;;;;;;;;;5067628;28;21126;-85
2021/06/09 06:02:07;;;;;;;8.52;7.72;;;;;;;;;;5068181;28;20413;-85
2021/06/09 06:04:35;;;;;;;9.38;8.45;;;;;;;;;;5066092;28;20433;-84
2021/06/09 06:07:03;;;;;;;9.07;8.20;;;;;;;;;;5068139;28;20430;-85
2021/06/09 06:09:32;;;;;;;9.85;8.70;;;;;;;;;;5068663;28;20456;-85
2021/06/09 06:11:59;;;;;;;9.20;8.40;;;;;;;;;;5065973;28;20457;-85
2021/06/09 06:14:25;;;;;;;9.20;8.30;;;;;;;;;;5068887;28;20828;-86
2021/06/09 06:16:53;;;;;;;10.10;8.35;;;;;;;;;;5066908;28;20404;-85
2021/06/09 06:19:20;;;;;;;9.10;8.18;;;;;;;;;;5070730;28;20769;-85
2021/06/09 06:21:47;;;;;;;8.60;7.70;;;;;;;;;;5068953;28;20494;-85
2021/06/09 06:24:16;;;;;;;8.23;7.53;;;;;;;;;;5067286;28;20853;-85
2021/06/09 06:26:46;;;;;;;7.70;7.10;;;;;;;;;;5068795;28;21139;-85
2021/06/09 06:29:13;;;;;;;7.47;6.87;;;;;;;;;;5064376;28;20767;-85
2021/06/09 06:31:39;;;;;;;7.22;6.63;;;;;;;;;;5067536;28;20889;-85
2021/06/09 06:34:06;;;;;;;7.13;6.50;;;;;;;;;;5065941;28;20489;-85
2021/06/09 06:36:35;;;;;;;7.80;7.00;;;;;;;;;;5067179;28;20892;-86
2021/06/09 06:39:04;;;;;;;8.15;7.13;;;;;;;;;;5066526;28;20402;-84
2021/06/09 06:41:30;;;;;;;8.57;7.40;;;;;;;;;;5067269;28;20428;-86
2021/06/09 06:43:58;;;;;;;8.77;7.93;;;;;;;;;;5065164;28;20894;-84
2021/06/09 06:46:26;;;;;;;8.38;7.57;;;;;;;;;;5069630;28;20428;-85
2021/06/09 06:48:55;;;;;;;13.75;8.27;;;;;;;;;;5067649;28;20410;-86
2021/06/09 06:51:22;;;;;;;9.25;8.35;;;;;;;;;;5067121;28;20406;-84
2021/06/09 06:53:50;;;;;;;9.18;8.27;;;;;;;;;;5067314;28;20432;-84
2021/06/09 06:56:18;;;;;;;9.27;8.27;;;;;;;;;;5070794;28;20402;-84
2021/06/09 06:58:49;;;;;;;9.27;8.15;;;;;;;;;;5065561;28;20402;-84
2021/06/09 07:01:19;;;;;;;9.40;8.40;;;;;;;;;;5066458;28;20406;-85
2021/06/09 07:03:46;;;;;;;8.17;7.37;;;;;;;;;;5065221;28;20406;-85
2021/06/09 07:06:13;;;;;;;9.13;7.57;;;;;;;;;;5068263;28;21227;-85
2021/06/09 07:08:55;;;;;;;7.30;6.60;;;;;;;;;;5067891;28;20416;-85
2021/06/09 07:11:22;;;;;;;7.45;6.75;;;;;;;;;;5065599;28;21054;-86
2021/06/09 07:13:51;;;;;;;8.17;7.37;;;;;;;;;;5063474;28;20402;-86
2021/06/09 07:16:20;;;;;;;8.00;7.10;;;;;;;;;;5068133;28;20398;-86
2021/06/09 07:18:47;;;;;;;7.53;6.82;;;;;;;;;;5066430;28;20394;-84
2021/06/09 07:21:15;;;;;;;7.53;6.82;;;;;;;;;;5064451;28;20909;-85
2021/06/09 07:23:42;;;;;;;7.93;7.20;;;;;;;;;;5065316;28;20408;-85
2021/06/09 07:26:09;;;;;;;7.97;7.18;;;;;;;;;;5065987;28;20430;-85
2021/06/09 07:28:41;;;;;;;8.27;7.47;;;;;;;;;;5059900;28;20425;-86
2021/06/09 07:31:09;;;;;;;7.80;7.10;;;;;;;;;;5066811;28;21556;-85
2021/06/09 07:33:37;;;;;;;8.20;7.40;;;;;;;;;;5069186;28;20403;-84
2021/06/09 07:36:06;;;;;;;7.93;7.22;;;;;;;;;;5068358;28;20416;-84
2021/06/09 07:38:39;;;;;;;8.52;6.70;;;;;;;;;;5065477;28;20396;-84
2021/06/09 07:41:06;;;;;;;8.05;7.05;;;;;;;;;;5065371;28;20412;-85
2021/06/09 07:43:38;;;;;;;8.13;7.40;;;;;;;;;;5067962;28;20396;-86
2021/06/09 07:46:07;;;;;;;8.05;7.20;;;;;;;;;;5046051;28;20984;-85
2021/06/09 07:48:36;;;;;;;7.03;5.93;;;;;;;;;;5067184;28;20457;-87
2021/06/09 07:51:08;;;;;;;6.85;6.18;;;;;;;;;;5060395;28;20409;-85
2021/06/09 07:53:35;;;;;;;12.30;7.40;;;;;;;;;;5062393;28;20402;-85
2021/06/09 07:56:02;;;;;;;7.90;7.28;;;;;;;;;;5061523;28;20410;-87
2021/06/09 07:58:32;;;;;;;7.07;6.47;;;;;;;;;;5061023;28;20404;-86
2021/06/09 08:01:01;;;;;;;7.82;7.22;;;;;;;;;;5063474;28;20403;-86
2021/06/09 08:03:30;;;;;;;8.85;8.05;;;;;;;;;;5065773;28;20400;-86
2021/06/09 08:05:57;;;;;;;7.72;7.13;;;;;;;;;;5065785;28;20499;-86
2021/06/09 08:08:25;;;;;;;7.20;6.18;;;;;;;;;;5068293;28;20804;-86
2021/06/09 08:10:52;;;;;;;6.70;6.00;;;;;;;;;;5062379;28;20888;-87
2021/06/09 08:13:19;;;;;;;7.30;6.60;;;;;;;;;;5068121;28;20443;-85
2021/06/09 08:15:46;;;;;;;6.40;5.90;;;;;;;;;;5065428;28;21183;-87
2021/06/09 08:18:13;;;;;;;4.73;4.33;;;;;;;;;;5067184;28;20475;-86
2021/06/09 08:20:58;;;;;;;4.63;4.22;;;;;;;;;;5066777;28;20401;-86
2021/06/09 08:23:26;;;;;;;4.50;4.10;;;;;;;;;;5073275;28;21001;-86
2021/06/09 08:25:52;;;;;;;4.20;3.88;;;;;;;;;;5069138;28;20922;-87
2021/06/09 08:28:18;;;;;;;5.15;4.65;;;;;;;;;;5072295;28;20398;-87
2021/06/09 08:30:45;;;;;;;4.53;4.22;;;;;;;;;;5065488;28;20410;-86
2021/06/09 08:33:11;;;;;;;4.75;3.80;;;;;;;;;;5065715;28;20762;-87
2021/06/09 08:35:38;;;;;;;4.72;4.03;;;;;;;;;;5065621;28;20402;-85
2021/06/09 08:38:04;;;;;;;4.43;4.03;;;;;;;;;;5064567;28;20429;-86
2021/06/09 08:40:32;;;;;;;4.53;4.13;;;;;;;;;;5066330;28;20456;-86
2021/06/09 08:43:00;;;;;;;4.50;4.10;;;;;;;;;;5065769;28;20412;-86
2021/06/09 08:45:27;;;;;;;5.25;4.18;;;;;;;;;;5066666;28;20407;-85
2021/06/09 08:47:54;;;;;;;4.93;4.38;;;;;;;;;;5065118;28;20405;-87
2021/06/09 08:50:21;;;;;;;4.72;4.32;;;;;;;;;;5067822;28;20428;-86
2021/06/09 08:52:49;;;;;;;4.88;4.40;;;;;;;;;;5069267;28;20402;-87
2021/06/09 08:55:16;;;;;;;4.63;4.22;;;;;;;;;;5069231;28;20404;-87
2021/06/09 08:57:44;;;;;;;4.72;4.30;;;;;;;;;;5069348;28;20398;-86
2021/06/09 09:00:14;;;;;;;5.22;4.22;;;;;;;;;;5066331;28;20413;-86
2021/06/09 09:02:40;;;;;;;4.80;4.37;;;;;;;;;;5067484;28;20500;-84
2021/06/09 09:05:07;;;;;;;5.00;4.50;;;;;;;;;;5066791;28;20403;-86
2021/06/09 09:07:34;;;;;;;5.15;4.75;;;;;;;;;;5064700;28;20418;-85
2021/06/09 09:10:01;;;;;;;5.57;4.38;;;;;;;;;;5064470;28;20402;-87
2021/06/09 09:12:28;;;;;;;5.50;4.90;;;;;;;;;;5063393;28;20524;-86
2021/06/09 09:14:56;;;;;;;6.20;4.75;;;;;;;;;;5065704;28;20397;-87
2021/06/09 09:17:22;;;;;;;5.35;4.85;;;;;;;;;;5062768;28;20408;-86
2021/06/09 09:19:48;;;;;;;6.43;5.50;;;;;;;;;;5065233;28;20456;-87
2021/06/09 09:22:19;;;;;;;5.40;4.93;;;;;;;;;;5064229;28;20406;-85
2021/06/09 09:24:47;;;;;;;5.78;5.10;;;;;;;;;;5065366;28;20905;-86
2021/06/09 09:27:23;;;;;;;6.10;5.50;;;;;;;;;;5069106;28;20433;-84
2021/06/09 09:30:01;;;;;;;5.97;5.40;;;;;;;;;;5066068;28;20413;-86
2021/06/09 09:32:28;;;;;;;5.22;4.72;;;;;;;;;;5068120;28;20402;-84
2021/06/09 09:35:04;;;;;;;5.72;4.95;;;;;;;;;;5068855;28;20404;-85
2021/06/09 09:37:32;;;;;;;5.68;4.95;;;;;;;;;;5066874;28;20508;-85
2021/06/09 09:40:08;;;;;;;5.40;5.00;;;;;;;;;;5067855;28;20458;-86
2021/06/09 09:42:35;;;;;;;6.40;5.40;;;;;;;;;;5066755;28;20400;-87
2021/06/09 09:45:22;;;;;;;5.97;5.35;;;;;;;;;;5063307;28;20421;-86
2021/06/09 09:48:16;;;;;;;6.00;5.45;;;;;;;;;;5063456;28;20418;-87
2021/06/09 09:50:44;;;;;;;5.57;5.07;;;;;;;;;;5025305;28;20423;-86
2021/06/09 09:53:22;;;;;;;5.78;5.28;;;;;;;;;;5064998;28;20406;-86
2021/06/09 09:55:56;;;;;;;6.30;5.70;;;;;;;;;;5063504;28;20397;-86
2021/06/09 09:58:23;;;;;;;5.88;5.28;;;;;;;;;;5061783;28;20413;-87
2021/06/09 10:00:51;;;;;;;5.88;5.38;;;;;;;;;;5062334;28;20405;-85
2021/06/09 10:03:19;;;;;;;5.90;5.30;;;;;;;;;;5062956;28;20414;-85
2021/06/09 10:05:46;;;;;;;5.63;5.15;;;;;;;;;;5065011;28;20426;-86
2021/06/09 10:08:12;;;;;;;6.18;5.57;;;;;;;;;;5067201;28;20398;-83
2021/06/09 10:10:39;;;;;;;6.20;5.70;;;;;;;;;;5065534;28;20894;-84
2021/06/09 10:13:08;;;;;;;6.67;5.70;;;;;;;;;;5060388;28;20527;-85
2021/06/09 10:15:36;;;;;;;6.57;5.60;;;;;;;;;;5063878;28;20779;-85
2021/06/09 10:18:17;;;;;;;6.57;5.70;;;;;;;;;;5068860;28;20462;-85
2021/06/09 10:20:47;;;;;;;6.72;6.00;;;;;;;;;;5067082;28;20924;-85
2021/06/09 10:23:34;;;;;;;6.73;5.77;;;;;;;;;;5069018;28;20427;-84
2021/06/09 10:26:09;;;;;;;5.85;5.28;;;;;;;;;;5065262;28;20971;-85
2021/06/09 10:29:01;;;;;;;6.13;5.53;;;;;;;;;;5067018;28;20406;-84
2021/06/09 10:31:29;;;;;;;6.65;5.95;;;;;;;;;;5062479;28;20439;-84
2021/06/09 10:33:57;;;;;;;6.43;5.72;;;;;;;;;;5062319;28;20481;-84
2021/06/09 10:36:25;;;;;;;7.07;5.43;;;;;;;;;;5067163;28;20406;-84
2021/06/09 10:38:53;;;;;;;6.13;5.60;;;;;;;;;;5069843;28;20857;-83
2021/06/09 10:41:23;;;;;;;6.13;5.63;;;;;;;;;;5067913;28;20423;-85
2021/06/09 10:43:54;;;;;;;6.67;6.07;;;;;;;;;;5066656;28;20942;-84
2021/06/09 10:46:25;;;;;;;6.22;5.72;;;;;;;;;;5065755;28;20414;-84
2021/06/09 10:48:56;;;;;;;7.28;6.05;;;;;;;;;;5070746;28;20471;-84
2021/06/09 10:51:25;;;;;;;6.53;5.57;;;;;;;;;;5067695;28;20425;-85
2021/06/09 10:53:53;;;;;;;7.43;5.60;;;;;;;;;;5067753;28;20397;-83
2021/06/09 10:56:22;;;;;;;6.53;5.90;;;;;;;;;;5068112;28;20398;-85
2021/06/09 10:58:50;;;;;;;6.53;5.93;;;;;;;;;;5065314;28;20834;-85
2021/06/09 11:01:24;;;;;;;6.70;6.05;;;;;;;;;;5065174;28;20445;-84
2021/06/09 11:03:56;;;;;;;6.50;6.00;;;;;;;;;;5067188;28;20842;-85
2021/06/09 11:06:50;;;;;;;6.70;6.10;;;;;;;;;;5066761;28;20430;-85
2021/06/09 11:09:23;;;;;;;7.20;6.10;;;;;;;;;;5067679;28;20400;-84
2021/06/09 11:12:18;;;;;;;6.87;5.83;;;;;;;;;;5070162;28;20448;-85
2021/06/09 11:14:47;;;;;;;6.90;6.20;;;;;;;;;;5068674;28;20398;-86
2021/06/09 11:17:15;;;;;;;7.10;6.53;;;;;;;;;;5064069;28;20492;-87
2021/06/09 11:19:46;;;;;;;6.63;6.00;;;;;;;;;;5063007;28;20440;-85
2021/06/09 11:22:22;;;;;;;6.70;6.07;;;;;;;;;;5064560;28;20402;-84
2021/06/09 11:25:16;;;;;;;7.43;6.38;;;;;;;;;;5063744;28;20410;-86
2021/06/09 11:27:56;;;;;;;6.80;6.10;;;;;;;;;;5062541;28;20421;-84
2021/06/09 11:30:46;;;;;;;7.30;6.60;;;;;;;;;;5062180;28;20406;-85
2021/06/09 11:33:39;;;;;;;9.15;6.57;;;;;;;;;;5061920;28;20510;-84
2021/06/09 11:36:08;;;;;;;6.93;6.30;;;;;;;;;;5062949;28;20400;-85
2021/06/09 11:38:41;;;;;;;8.05;6.60;;;;;;;;;;5062562;28;20406;-84
2021/06/09 11:41:11;;;;;;;6.80;6.22;;;;;;;;;;5065297;28;20424;-86
2021/06/09 11:43:40;;;;;;;7.30;6.60;;;;;;;;;;5062541;28;20452;-81
2021/06/09 11:46:08;;;;;;;8.50;6.80;;;;;;;;;;5068656;28;20420;-85
2021/06/09 11:48:36;;;;;;;6.80;5.97;;;;;;;;;;5066087;28;20405;-86
2021/06/09 11:51:28;;;;;;;6.28;5.70;;;;;;;;;;5070600;28;20452;-84
2021/06/09 11:53:58;;;;;;;6.70;6.00;;;;;;;;;;5070945;28;20419;-84
2021/06/09 11:56:27;;;;;;;6.20;5.70;;;;;;;;;;5056216;28;20413;-84
2021/06/09 11:58:58;;;;;;;6.70;6.10;;;;;;;;;;5062513;28;20421;-84
2021/06/09 12:01:26;;;;;;;6.53;6.03;;;;;;;;;;5061494;28;20404;-83
2021/06/09 12:04:13;;;;;;;6.57;5.85;;;;;;;;;;5071916;28;20413;-83
2021/06/09 12:06:45;;;;;;;6.50;6.00;;;;;;;;;;5067050;28;20924;-83
2021/06/09 12:09:13;;;;;;;6.68;6.18;;;;;;;;;;5071376;28;20401;-83
2021/06/09 12:11:43;;;;;;;6.43;5.82;;;;;;;;;;5068993;28;20408;-84
2021/06/09 12:14:21;;;;;;;6.90;6.25;;;;;;;;;;5072452;28;20764;-84
2021/06/09 12:16:50;;;;;;;7.10;6.40;;;;;;;;;;5069477;28;20425;-83
2021/06/09 12:19:30;;;;;;;6.78;6.10;;;;;;;;;;5069491;28;20467;-83
2021/06/09 12:22:03;;;;;;;7.25;5.95;;;;;;;;;;5070984;28;20915;-85
2021/06/09 12:24:31;;;;;;;7.32;6.55;;;;;;;;;;5065365;28;20397;-84
2021/06/09 12:27:01;;;;;;;7.37;6.33;;;;;;;;;;5072144;28;20421;-84
2021/06/09 12:29:30;;;;;;;7.38;6.50;;;;;;;;;;5066158;28;20399;-85
2021/06/09 12:34:56;;;;;;;7.77;6.60;;;;;;;;;;5040861;28;20386;-85
2021/06/09 12:37:23;;;;;;;7.18;6.35;;;;;;;;;;5070276;28;20399;-84
2021/06/09 12:40:00;;;;;;;7.50;6.70;;;;;;;;;;5071058;28;20759;-85
2021/06/09 12:42:27;;;;;;;7.22;6.63;;;;;;;;;;5065060;28;21284;-85
2021/06/09 12:44:54;;;;;;;7.05;6.45;;;;;;;;;;5072234;28;20964;-85
2021/06/09 12:47:30;;;;;;;8.13;6.93;;;;;;;;;;5065636;28;20433;-85
2021/06/09 12:50:16;;;;;;;6.60;6.10;;;;;;;;;;5072400;28;20504;-85
2021/06/09 12:52:45;;;;;;;7.22;6.68;;;;;;;;;;5070829;28;21307;-84
2021/06/09 12:55:17;;;;;;;7.00;6.30;;;;;;;;;;5069070;28;20927;-85
2021/06/09 12:57:44;;;;;;;6.70;5.93;;;;;;;;;;5066274;28;20420;-85
2021/06/09 13:00:33;;;;;;;6.75;6.25;;;;;;;;;;5071842;28;20404;-86
2021/06/09 13:03:27;;;;;;;7.65;6.90;;;;;;;;;;5071612;28;20571;-84
2021/06/09 13:05:59;;;;;;;8.50;7.13;;;;;;;;;;5052963;28;20416;-85
2021/06/09 13:08:28;;;;;;;6.50;5.90;;;;;;;;;;5068621;28;21236;-84
2021/06/09 13:11:09;;;;;;;7.53;6.93;;;;;;;;;;5069547;28;20941;-86
2021/06/09 13:13:37;;;;;;;7.20;6.60;;;;;;;;;;5067912;28;20513;-85
2021/06/09 13:16:05;;;;;;;7.53;6.75;;;;;;;;;;5071764;28;20992;-86
2021/06/09 13:18:48;;;;;;;7.60;6.88;;;;;;;;;;5068004;28;20401;-85
2021/06/09 13:21:22;;;;;;;7.15;6.55;;;;;;;;;;5069992;28;20493;-85
2021/06/09 13:23:50;;;;;;;7.00;6.30;;;;;;;;;;5070563;28;20418;-84
2021/06/09 13:26:19;;;;;;;7.82;7.03;;;;;;;;;;5070517;28;20969;-85
2021/06/09 13:28:45;;;;;;;7.97;7.15;;;;;;;;;;5069204;28;21740;-83
2021/06/09 13:31:13;;;;;;;6.97;6.38;;;;;;;;;;5071144;28;20845;-85
2021/06/09 13:33:48;;;;;;;6.83;6.13;;;;;;;;;;5062533;28;20883;-85
2021/06/09 13:36:18;;;;;;;6.60;6.10;;;;;;;;;;5068523;28;20410;-85
2021/06/09 13:38:46;;;;;;;7.43;6.70;;;;;;;;;;5067252;28;20390;-85
2021/06/09 13:41:13;;;;;;;8.70;6.65;;;;;;;;;;5071411;28;20475;-85
2021/06/09 13:43:44;;;;;;;7.30;6.60;;;;;;;;;;5066536;28;20434;-86
2021/06/09 13:46:11;;;;;;;7.00;6.30;;;;;;;;;;5066699;28;20927;-85
2021/06/09 13:48:50;;;;;;;7.05;6.55;;;;;;;;;;5064837;28;20413;-85
2021/06/09 13:51:18;;;;;;;7.18;6.47;;;;;;;;;;5066485;28;20417;-84
2021/06/09 13:53:54;;;;;;;7.35;6.63;;;;;;;;;;5069297;28;20413;-85
2021/06/09 13:56:33;;;;;;;7.00;6.50;;;;;;;;;;5063587;28;20406;-85
2021/06/09 13:59:15;;;;;;;7.07;6.47;;;;;;;;;;5069714;28;20424;-84
2021/06/09 14:01:44;;;;;;;7.00;6.32;;;;;;;;;;5068238;28;20402;-85
2021/06/09 14:04:11;;;;;;;7.20;6.60;;;;;;;;;;5068784;28;20455;-86
2021/06/09 14:06:37;;;;;;;7.25;6.40;;;;;;;;;;5064298;28;20410;-87
2021/06/09 14:09:06;;;;;;;6.90;6.40;;;;;;;;;;5070966;28;20818;-86
2021/06/09 14:11:34;;;;;;;7.03;6.53;;;;;;;;;;5062188;28;20398;-85
2021/06/09 14:14:03;;;;;;;7.38;6.78;;;;;;;;;;5049033;28;21358;-86
2021/06/09 14:16:30;;;;;;;7.60;6.90;;;;;;;;;;5066272;28;20959;-87
2021/06/09 14:19:06;;;;;;;7.00;6.40;;;;;;;;;;5068360;28;20416;-89
2021/06/09 14:21:33;;;;;;;7.18;6.47;;;;;;;;;;5063514;28;20394;-86
2021/06/09 14:23:59;;;;;;;7.57;6.78;;;;;;;;;;5061741;28;20397;-85
2021/06/09 14:26:28;;;;;;;6.88;6.38;;;;;;;;;;5062901;28;20752;-82
2021/06/09 14:28:55;;;;;;;6.85;6.25;;;;;;;;;;5060720;28;21157;-84
2021/06/09 14:31:23;;;;;;;7.67;6.40;;;;;;;;;;5064170;28;20398;-85
2021/06/09 14:33:55;;;;;;;7.13;6.53;;;;;;;;;;5064604;28;20402;-85
2021/06/09 14:36:27;;;;;;;7.78;6.38;;;;;;;;;;5065146;28;20413;-85
2021/06/09 14:38:59;;;;;;;6.90;6.30;;;;;;;;;;5065493;28;20487;-85
2021/06/09 14:41:30;;;;;;;7.03;6.38;;;;;;;;;;5064391;28;20416;-85
2021/06/09 14:47:07;;;;;;;6.60;6.00;;;;;;;;;;5062059;28;20416;-84
2021/06/09 14:49:40;;;;;;;7.40;6.70;;;;;;;;;;5061323;28;20512;-85
2021/06/09 14:52:13;;;;;;;7.00;6.43;;;;;;;;;;5061661;28;20774;-85
2021/06/09 14:54:41;;;;;;;7.15;6.55;;;;;;;;;;5061833;28;20901;-84
2021/06/09 14:57:08;;;;;;;7.78;7.07;;;;;;;;;;5062188;28;20471;-84
2021/06/09 14:59:46;;;;;;;7.03;6.47;;;;;;;;;;5062376;28;20397;-85
2021/06/09 15:02:13;;;;;;;6.78;6.20;;;;;;;;;;5063032;28;20402;-86